sensor_id;sensor_type;location;lat;lon;timestamp;temperature;humidity
25170;DHT22;13129;48.012;10.352;2024-02-15T04:33:25;2.40;99.90
25170;DHT22;13129;48.012;10.352;2024-02-15T04:36:46;2.30;99.90
25170;DHT22;13129;48.012;10.352;2024-02-15T04:42:43;2.10;99.90
25170;DHT22;13129;48.012;10.352;2024-02-15T04:45:10;2.20;99.90
25170;DHT22;13129;48.012;10.352;2024-02-15T04:47:38;2.20;99.90
25170;DHT22;13129;48.012;10.352;2024-02-15T04:50:06;2.20;99.90
25170;DHT22;13129;48.012;10.352;2024-02-15T04:55:02;2.20;99.90
25170;DHT22;13129;48.012;10.352;2024-02-15T04:57:30;2.20;99.90
25170;DHT22;13129;48.012;10.352;2024-02-15T04:59:56;2.30;99.90
25170;DHT22;13129;48.012;10.352;2024-02-15T05:02:21;2.40;99.90
25170;DHT22;13129;48.012;10.352;2024-02-15T05:04:50;2.40;99.90
25170;DHT22;13129;48.012;10.352;2024-02-15T05:07:21;2.50;99.90
25170;DHT22;13129;48.012;10.352;2024-02-15T05:09:48;2.60;99.90
25170;DHT22;13129;48.012;10.352;2024-02-15T05:12:21;2.60;99.90
25170;DHT22;13129;48.012;10.352;2024-02-15T05:14:46;2.70;99.90
25170;DHT22;13129;48.012;10.352;2024-02-15T05:17:12;2.70;99.90
25170;DHT22;13129;48.012;10.352;2024-02-15T05:19:37;2.80;99.90
25170;DHT22;13129;48.012;10.352;2024-02-15T05:22:03;2.80;99.90
25170;DHT22;13129;48.012;10.352;2024-02-15T05:24:31;2.80;99.90
25170;DHT22;13129;48.012;10.352;2024-02-15T05:26:57;2.80;99.90
25170;DHT22;13129;48.012;10.352;2024-02-15T05:29:22;2.60;99.90
25170;DHT22;13129;48.012;10.352;2024-02-15T05:31:48;2.50;99.90
25170;DHT22;13129;48.012;10.352;2024-02-15T05:34:16;2.60;99.90
25170;DHT22;13129;48.012;10.352;2024-02-15T05:36:42;2.50;99.90
25170;DHT22;13129;48.012;10.352;2024-02-15T05:39:07;2.40;99.90
25170;DHT22;13129;48.012;10.352;2024-02-15T05:41:33;2.30;99.90
25170;DHT22;13129;48.012;10.352;2024-02-15T05:43:59;2.20;99.90
25170;DHT22;13129;48.012;10.352;2024-02-15T05:46:25;2.00;99.90
25170;DHT22;13129;48.012;10.352;2024-02-15T05:48:53;1.90;99.90
25170;DHT22;13129;48.012;10.352;2024-02-15T05:51:18;1.90;99.90
25170;DHT22;13129;48.012;10.352;2024-02-15T05:53:44;1.80;99.90
25170;DHT22;13129;48.012;10.352;2024-02-15T05:56:10;1.80;99.90
25170;DHT22;13129;48.012;10.352;2024-02-15T05:58:36;1.50;99.90
25170;DHT22;13129;48.012;10.352;2024-02-15T06:01:02;1.40;99.90
25170;DHT22;13129;48.012;10.352;2024-02-15T06:03:30;1.30;99.90
25170;DHT22;13129;48.012;10.352;2024-02-15T06:05:58;1.40;99.90
25170;DHT22;13129;48.012;10.352;2024-02-15T06:08:25;1.30;99.90
25170;DHT22;13129;48.012;10.352;2024-02-15T06:10:51;1.20;99.90
25170;DHT22;13129;48.012;10.352;2024-02-15T06:13:18;1.20;99.90
25170;DHT22;13129;48.012;10.352;2024-02-15T06:15:43;1.10;99.90
25170;DHT22;13129;48.012;10.352;2024-02-15T06:18:08;1.00;99.90
25170;DHT22;13129;48.012;10.352;2024-02-15T06:20:35;1.00;99.90
25170;DHT22;13129;48.012;10.352;2024-02-15T06:23:02;1.00;99.90
25170;DHT22;13129;48.012;10.352;2024-02-15T06:25:31;1.00;99.90
25170;DHT22;13129;48.012;10.352;2024-02-15T06:27:58;1.00;99.90
25170;DHT22;13129;48.012;10.352;2024-02-15T06:30:28;1.00;99.90
25170;DHT22;13129;48.012;10.352;2024-02-15T06:33:12;1.30;99.90
25170;DHT22;13129;48.012;10.352;2024-02-15T06:35:56;1.10;99.90
25170;DHT22;13129;48.012;10.352;2024-02-15T06:38:40;1.40;99.90
25170;DHT22;13129;48.012;10.352;2024-02-15T06:41:24;1.30;99.90
25170;DHT22;13129;48.012;10.352;2024-02-15T06:43:50;1.40;99.90
25170;DHT22;13129;48.012;10.352;2024-02-15T06:46:15;1.40;99.90
25170;DHT22;13129;48.012;10.352;2024-02-15T06:48:45;1.40;99.90
25170;DHT22;13129;48.012;10.352;2024-02-15T06:51:12;1.60;99.90
25170;DHT22;13129;48.012;10.352;2024-02-15T06:53:40;1.50;99.90
25170;DHT22;13129;48.012;10.352;2024-02-15T06:56:09;1.80;99.90
25170;DHT22;13129;48.012;10.352;2024-02-15T06:58:35;1.70;99.90
25170;DHT22;13129;48.012;10.352;2024-02-15T07:24:19;4.10;99.90
25170;DHT22;13129;48.012;10.352;2024-02-15T07:26:44;4.40;99.90
25170;DHT22;13129;48.012;10.352;2024-02-15T07:29:10;4.60;99.90
25170;DHT22;13129;48.012;10.352;2024-02-15T07:31:36;4.70;99.90
25170;DHT22;13129;48.012;10.352;2024-02-15T07:34:02;5.00;99.90
25170;DHT22;13129;48.012;10.352;2024-02-15T07:36:28;5.00;99.90
25170;DHT22;13129;48.012;10.352;2024-02-15T07:38:54;5.10;99.90
25170;DHT22;13129;48.012;10.352;2024-02-15T07:41:21;5.30;99.90
25170;DHT22;13129;48.012;10.352;2024-02-15T07:43:48;5.40;99.90
25170;DHT22;13129;48.012;10.352;2024-02-15T07:46:13;5.50;99.90
25170;DHT22;13129;48.012;10.352;2024-02-15T07:48:39;5.60;99.90
25170;DHT22;13129;48.012;10.352;2024-02-15T07:51:09;5.60;99.90
25170;DHT22;13129;48.012;10.352;2024-02-15T07:53:35;5.40;99.90
25170;DHT22;13129;48.012;10.352;2024-02-15T07:56:00;5.40;99.90
25170;DHT22;13129;48.012;10.352;2024-02-15T07:58:26;5.50;99.90
25170;DHT22;13129;48.012;10.352;2024-02-15T08:00:51;5.80;99.90
25170;DHT22;13129;48.012;10.352;2024-02-15T08:03:16;6.10;99.90
25170;DHT22;13129;48.012;10.352;2024-02-15T08:05:42;6.50;99.90
25170;DHT22;13129;48.012;10.352;2024-02-15T08:08:08;7.10;99.90
25170;DHT22;13129;48.012;10.352;2024-02-15T08:10:33;7.70;99.90
25170;DHT22;13129;48.012;10.352;2024-02-15T08:12:59;8.30;99.90
25170;DHT22;13129;48.012;10.352;2024-02-15T08:15:24;9.10;99.90
25170;DHT22;13129;48.012;10.352;2024-02-15T08:17:52;10.20;99.90
25170;DHT22;13129;48.012;10.352;2024-02-15T08:23:25;13.60;99.90
25170;DHT22;13129;48.012;10.352;2024-02-15T08:25:52;15.00;99.90
25170;DHT22;13129;48.012;10.352;2024-02-15T08:31:16;16.50;99.90
25170;DHT22;13129;48.012;10.352;2024-02-15T08:33:41;16.30;98.20
25170;DHT22;13129;48.012;10.352;2024-02-15T08:36:08;16.10;97.00
25170;DHT22;13129;48.012;10.352;2024-02-15T08:38:36;15.90;97.30
25170;DHT22;13129;48.012;10.352;2024-02-15T08:41:02;16.10;97.50
25170;DHT22;13129;48.012;10.352;2024-02-15T08:43:30;16.30;96.50
25170;DHT22;13129;48.012;10.352;2024-02-15T08:45:58;16.50;95.50
25170;DHT22;13129;48.012;10.352;2024-02-15T08:48:24;16.50;94.80
25170;DHT22;13129;48.012;10.352;2024-02-15T08:50:49;16.50;94.40
25170;DHT22;13129;48.012;10.352;2024-02-15T08:53:15;16.80;93.90
25170;DHT22;13129;48.012;10.352;2024-02-15T08:55:41;17.20;93.10
25170;DHT22;13129;48.012;10.352;2024-02-15T08:58:07;17.70;92.70
25170;DHT22;13129;48.012;10.352;2024-02-15T09:00:34;18.40;92.00
25170;DHT22;13129;48.012;10.352;2024-02-15T09:03:00;19.40;90.70
25170;DHT22;13129;48.012;10.352;2024-02-15T09:05:25;20.40;87.30
25170;DHT22;13129;48.012;10.352;2024-02-15T09:07:51;21.00;82.30
25170;DHT22;13129;48.012;10.352;2024-02-15T09:10:16;21.00;80.40
25170;DHT22;13129;48.012;10.352;2024-02-15T09:12:42;21.80;78.60
25170;DHT22;13129;48.012;10.352;2024-02-15T09:15:11;22.80;76.00
25170;DHT22;13129;48.012;10.352;2024-02-15T09:17:37;23.50;71.70
25170;DHT22;13129;48.012;10.352;2024-02-15T09:20:06;23.50;68.60
25170;DHT22;13129;48.012;10.352;2024-02-15T09:22:33;23.90;68.40
25170;DHT22;13129;48.012;10.352;2024-02-15T09:24:58;24.40;64.60
25170;DHT22;13129;48.012;10.352;2024-02-15T09:27:23;24.50;63.40
25170;DHT22;13129;48.012;10.352;2024-02-15T09:29:49;24.60;61.30
25170;DHT22;13129;48.012;10.352;2024-02-15T09:32:14;24.80;60.80
25170;DHT22;13129;48.012;10.352;2024-02-15T09:34:40;25.20;58.90
25170;DHT22;13129;48.012;10.352;2024-02-15T09:37:07;25.30;57.50
25170;DHT22;13129;48.012;10.352;2024-02-15T09:39:32;25.20;58.00
25170;DHT22;13129;48.012;10.352;2024-02-15T09:41:58;24.90;57.80
25170;DHT22;13129;48.012;10.352;2024-02-15T09:44:26;25.20;56.20
25170;DHT22;13129;48.012;10.352;2024-02-15T09:47:04;26.10;55.60
25170;DHT22;13129;48.012;10.352;2024-02-15T09:49:35;26.10;54.30
25170;DHT22;13129;48.012;10.352;2024-02-15T09:52:00;26.20;54.30
25170;DHT22;13129;48.012;10.352;2024-02-15T09:54:28;26.60;53.40
25170;DHT22;13129;48.012;10.352;2024-02-15T09:56:54;27.00;53.10
25170;DHT22;13129;48.012;10.352;2024-02-15T09:59:21;27.70;51.30
25170;DHT22;13129;48.012;10.352;2024-02-15T10:01:46;28.20;50.70
25170;DHT22;13129;48.012;10.352;2024-02-15T10:04:12;28.30;49.20
25170;DHT22;13129;48.012;10.352;2024-02-15T10:06:41;27.80;49.50
25170;DHT22;13129;48.012;10.352;2024-02-15T10:09:49;27.90;50.10
25170;DHT22;13129;48.012;10.352;2024-02-15T10:14:22;27.50;49.60
25170;DHT22;13129;48.012;10.352;2024-02-15T10:16:48;27.10;50.10
25170;DHT22;13129;48.012;10.352;2024-02-15T10:19:13;26.80;50.80
25170;DHT22;13129;48.012;10.352;2024-02-15T10:21:40;26.70;51.10
25170;DHT22;13129;48.012;10.352;2024-02-15T10:24:06;26.70;51.00
25170;DHT22;13129;48.012;10.352;2024-02-15T10:26:32;26.90;50.80
25170;DHT22;13129;48.012;10.352;2024-02-15T10:29:07;27.10;50.80
25170;DHT22;13129;48.012;10.352;2024-02-15T10:31:34;26.90;49.90
25170;DHT22;13129;48.012;10.352;2024-02-15T10:34:06;27.20;49.80
25170;DHT22;13129;48.012;10.352;2024-02-15T10:36:33;27.30;49.90
25170;DHT22;13129;48.012;10.352;2024-02-15T10:41:45;27.50;49.40
25170;DHT22;13129;48.012;10.352;2024-02-15T10:44:18;28.00;48.70
25170;DHT22;13129;48.012;10.352;2024-02-15T10:46:47;28.10;47.50
25170;DHT22;13129;48.012;10.352;2024-02-15T10:49:17;28.50;48.30
25170;DHT22;13129;48.012;10.352;2024-02-15T10:51:43;28.70;47.40
25170;DHT22;13129;48.012;10.352;2024-02-15T10:54:08;29.10;47.50
25170;DHT22;13129;48.012;10.352;2024-02-15T10:56:37;29.10;47.50
25170;DHT22;13129;48.012;10.352;2024-02-15T11:01:40;28.90;47.00
25170;DHT22;13129;48.012;10.352;2024-02-15T11:04:07;28.80;46.40
25170;DHT22;13129;48.012;10.352;2024-02-15T11:06:33;28.20;46.80
25170;DHT22;13129;48.012;10.352;2024-02-15T11:09:00;27.90;46.80
25170;DHT22;13129;48.012;10.352;2024-02-15T11:11:26;27.70;47.70
25170;DHT22;13129;48.012;10.352;2024-02-15T11:16:41;27.60;46.60
25170;DHT22;13129;48.012;10.352;2024-02-15T11:19:07;27.80;45.40
25170;DHT22;13129;48.012;10.352;2024-02-15T11:21:54;28.40;45.50
25170;DHT22;13129;48.012;10.352;2024-02-15T11:24:29;28.60;44.40
25170;DHT22;13129;48.012;10.352;2024-02-15T11:26:58;28.70;44.80
25170;DHT22;13129;48.012;10.352;2024-02-15T11:32:34;29.30;43.50
25170;DHT22;13129;48.012;10.352;2024-02-15T11:35:03;29.40;43.00
25170;DHT22;13129;48.012;10.352;2024-02-15T11:40:15;29.70;42.20
25170;DHT22;13129;48.012;10.352;2024-02-15T11:42:40;29.30;42.20
25170;DHT22;13129;48.012;10.352;2024-02-15T11:45:06;28.90;42.30
25170;DHT22;13129;48.012;10.352;2024-02-15T11:47:33;28.60;42.40
25170;DHT22;13129;48.012;10.352;2024-02-15T11:50:02;28.10;42.20
25170;DHT22;13129;48.012;10.352;2024-02-15T11:52:28;27.10;43.30
25170;DHT22;13129;48.012;10.352;2024-02-15T11:54:53;25.80;45.00
25170;DHT22;13129;48.012;10.352;2024-02-15T11:57:20;24.30;47.10
25170;DHT22;13129;48.012;10.352;2024-02-15T12:00:01;22.90;49.10
25170;DHT22;13129;48.012;10.352;2024-02-15T12:03:00;21.50;51.40
25170;DHT22;13129;48.012;10.352;2024-02-15T12:05:44;20.30;52.90
25170;DHT22;13129;48.012;10.352;2024-02-15T12:08:28;19.70;54.50
25170;DHT22;13129;48.012;10.352;2024-02-15T12:11:16;19.10;55.10
25170;DHT22;13129;48.012;10.352;2024-02-15T12:14:00;18.70;56.00
25170;DHT22;13129;48.012;10.352;2024-02-15T12:16:44;18.30;57.00
25170;DHT22;13129;48.012;10.352;2024-02-15T12:19:28;18.20;57.50
25170;DHT22;13129;48.012;10.352;2024-02-15T12:21:54;17.90;58.10
25170;DHT22;13129;48.012;10.352;2024-02-15T12:24:19;18.00;58.20
25170;DHT22;13129;48.012;10.352;2024-02-15T12:26:50;18.10;58.20
25170;DHT22;13129;48.012;10.352;2024-02-15T12:29:17;18.10;58.30
25170;DHT22;13129;48.012;10.352;2024-02-15T12:31:42;18.10;58.40
25170;DHT22;13129;48.012;10.352;2024-02-15T12:34:09;18.10;58.90
25170;DHT22;13129;48.012;10.352;2024-02-15T12:36:36;18.00;59.30
25170;DHT22;13129;48.012;10.352;2024-02-15T12:39:07;17.80;60.00
25170;DHT22;13129;48.012;10.352;2024-02-15T12:41:51;17.60;61.10
25170;DHT22;13129;48.012;10.352;2024-02-15T12:51:40;17.30;63.80
25170;DHT22;13129;48.012;10.352;2024-02-15T22:02:38;5.10;99.90
25170;DHT22;13129;48.012;10.352;2024-02-15T22:05:07;5.10;99.90
25170;DHT22;13129;48.012;10.352;2024-02-15T22:07:33;5.00;99.90
25170;DHT22;13129;48.012;10.352;2024-02-15T22:09:59;4.80;99.90
25170;DHT22;13129;48.012;10.352;2024-02-15T22:12:24;4.70;99.90
25170;DHT22;13129;48.012;10.352;2024-02-15T22:14:50;4.80;99.90
25170;DHT22;13129;48.012;10.352;2024-02-15T22:17:18;4.70;99.90
25170;DHT22;13129;48.012;10.352;2024-02-15T22:19:44;4.70;99.90
25170;DHT22;13129;48.012;10.352;2024-02-15T22:22:10;4.60;99.90
25170;DHT22;13129;48.012;10.352;2024-02-15T22:24:37;4.60;99.90
25170;DHT22;13129;48.012;10.352;2024-02-15T22:27:02;4.60;99.90
25170;DHT22;13129;48.012;10.352;2024-02-15T22:29:28;4.60;99.90
25170;DHT22;13129;48.012;10.352;2024-02-15T22:31:55;4.50;99.90
25170;DHT22;13129;48.012;10.352;2024-02-15T22:34:21;4.50;99.90
25170;DHT22;13129;48.012;10.352;2024-02-15T22:36:46;4.50;99.90
25170;DHT22;13129;48.012;10.352;2024-02-15T22:39:12;4.50;99.90
25170;DHT22;13129;48.012;10.352;2024-02-15T22:41:37;4.40;99.90
25170;DHT22;13129;48.012;10.352;2024-02-15T22:44:03;4.20;99.90
25170;DHT22;13129;48.012;10.352;2024-02-15T22:46:28;4.10;99.90
25170;DHT22;13129;48.012;10.352;2024-02-15T22:48:57;4.10;99.90
25170;DHT22;13129;48.012;10.352;2024-02-15T22:51:22;4.20;99.90
25170;DHT22;13129;48.012;10.352;2024-02-15T22:53:48;4.10;99.90
25170;DHT22;13129;48.012;10.352;2024-02-15T22:56:17;3.90;99.90
25170;DHT22;13129;48.012;10.352;2024-02-15T22:58:42;3.90;99.90
25170;DHT22;13129;48.012;10.352;2024-02-15T23:01:08;3.90;99.90
25170;DHT22;13129;48.012;10.352;2024-02-15T23:03:34;3.90;99.90
25170;DHT22;13129;48.012;10.352;2024-02-15T23:06:00;3.90;99.90
25170;DHT22;13129;48.012;10.352;2024-02-15T23:08:25;4.00;99.90
25170;DHT22;13129;48.012;10.352;2024-02-15T23:10:54;4.00;99.90
25170;DHT22;13129;48.012;10.352;2024-02-15T23:13:19;4.10;99.90
25170;DHT22;13129;48.012;10.352;2024-02-15T23:15:45;4.10;99.90
25170;DHT22;13129;48.012;10.352;2024-02-15T23:18:10;4.20;99.90
25170;DHT22;13129;48.012;10.352;2024-02-15T23:20:36;4.30;99.90
25170;DHT22;13129;48.012;10.352;2024-02-15T23:23:03;4.60;99.90
25170;DHT22;13129;48.012;10.352;2024-02-15T23:25:29;4.50;99.90
25170;DHT22;13129;48.012;10.352;2024-02-15T23:27:54;4.70;99.90
25170;DHT22;13129;48.012;10.352;2024-02-15T23:30:20;4.60;99.90
25170;DHT22;13129;48.012;10.352;2024-02-15T23:32:46;4.60;99.90
25170;DHT22;13129;48.012;10.352;2024-02-15T23:35:11;4.70;99.90
25170;DHT22;13129;48.012;10.352;2024-02-15T23:37:39;4.60;99.90
25170;DHT22;13129;48.012;10.352;2024-02-15T23:40:23;4.60;99.90
25170;DHT22;13129;48.012;10.352;2024-02-15T23:42:50;4.60;99.90
25170;DHT22;13129;48.012;10.352;2024-02-15T23:45:16;4.70;99.90
25170;DHT22;13129;48.012;10.352;2024-02-15T23:47:42;4.70;99.90
25170;DHT22;13129;48.012;10.352;2024-02-15T23:50:08;4.70;99.90
25170;DHT22;13129;48.012;10.352;2024-02-15T23:52:44;4.60;99.90
25170;DHT22;13129;48.012;10.352;2024-02-15T23:55:11;4.50;99.90
25170;DHT22;13129;48.012;10.352;2024-02-15T23:57:37;4.40;99.90
